Time;durP1;ratioP1;P1;durP2;ratioP2;P2;SDS_P1;SDS_P2;PMS_P1;PMS_P2;Temp;Humidity;BMP_temperature;BMP_pressure;BME280_temperature;BME280_humidity;BME280_pressure;Samples;Min_cycle;Max_cycle;Signal;HPM_P1;HPM_P2
2021/05/01 00:00:35;;;;;;;52.08;48.97;;;20.80;99.90;;;;;;5072615;28;20070;-61
2021/05/01 00:03:02;;;;;;;50.22;47.38;;;21.10;99.90;;;;;;5072805;28;20357;-64
2021/05/01 00:05:29;;;;;;;53.35;50.35;;;21.10;99.90;;;;;;5072693;28;20023;-64
2021/05/01 00:07:57;;;;;;;52.45;49.50;;;20.80;99.90;;;;;;5072636;28;20017;-64
2021/05/01 00:10:24;;;;;;;56.55;53.55;;;20.40;99.90;;;;;;5072624;28;20021;-63
2021/05/01 00:12:51;;;;;;;54.47;51.38;;;20.10;99.90;;;;;;5072560;28;20037;-62
2021/05/01 00:15:19;;;;;;;53.55;50.55;;;20.10;99.90;;;;;;5072509;28;20024;-63
2021/05/01 00:17:46;;;;;;;50.90;47.47;;;20.00;99.90;;;;;;5072507;28;20440;-61
2021/05/01 00:20:14;;;;;;;50.83;47.53;;;20.00;99.90;;;;;;5072350;28;20021;-62
2021/05/01 00:22:41;;;;;;;50.80;47.60;;;20.00;99.90;;;;;;5072506;28;20017;-65
2021/05/01 00:25:09;;;;;;;46.33;43.33;;;20.30;99.90;;;;;;5072548;28;20024;-64
2021/05/01 00:27:37;;;;;;;43.28;40.58;;;20.40;99.90;;;;;;5072488;28;20470;-64
2021/05/01 00:30:06;;;;;;;46.15;43.15;;;20.30;99.90;;;;;;5072449;28;20017;-62
2021/05/01 00:32:34;;;;;;;47.20;44.50;;;20.30;99.90;;;;;;5072335;28;20492;-61
2021/05/01 00:35:03;;;;;;;43.33;40.58;;;20.20;99.90;;;;;;5073199;28;20108;-62
2021/05/01 00:37:30;;;;;;;47.08;43.92;;;20.30;99.90;;;;;;5076260;28;20032;-62
2021/05/01 00:39:57;;;;;;;46.90;44.00;;;20.40;99.90;;;;;;5075901;28;20099;-64
2021/05/01 00:42:25;;;;;;;46.75;44.22;;;21.00;99.90;;;;;;5076002;28;20175;-62
2021/05/01 00:44:52;;;;;;;46.13;43.20;;;21.40;99.90;;;;;;5075869;28;20042;-63
2021/05/01 00:47:20;;;;;;;46.25;43.75;;;21.10;99.90;;;;;;5075796;28;20099;-64
2021/05/01 00:49:47;;;;;;;46.55;43.60;;;21.00;99.90;;;;;;5075703;28;20043;-65
2021/05/01 00:52:15;;;;;;;44.10;41.70;;;20.70;99.90;;;;;;5075712;28;20033;-65
2021/05/01 00:54:42;;;;;;;41.17;38.88;;;20.60;99.90;;;;;;5075759;28;20107;-63
2021/05/01 00:57:11;;;;;;;43.78;40.97;;;20.60;99.90;;;;;;5075730;28;20028;-65
2021/05/01 00:59:39;;;;;;;44.17;41.53;;;20.90;99.90;;;;;;5074405;28;20028;-63
2021/05/01 01:02:06;;;;;;;42.90;40.53;;;21.10;99.90;;;;;;5075601;28;20108;-63
2021/05/01 01:04:34;;;;;;;42.90;40.22;;;21.40;99.90;;;;;;5075504;28;20031;-64
2021/05/01 01:07:01;;;;;;;42.88;40.53;;;21.80;99.90;;;;;;5075484;28;20021;-63
2021/05/01 01:09:29;;;;;;;42.08;39.67;;;22.20;99.90;;;;;;5075502;28;20017;-64
2021/05/01 01:11:56;;;;;;;39.65;37.50;;;22.00;99.90;;;;;;5075520;28;20145;-64
2021/05/01 01:14:27;;;;;;;37.42;35.33;;;21.80;99.90;;;;;;5075330;28;20021;-65
2021/05/01 01:16:55;;;;;;;38.72;36.63;;;21.60;99.90;;;;;;5075345;28;20033;-65
2021/05/01 01:19:22;;;;;;;37.10;35.10;;;21.50;99.90;;;;;;5075227;28;20024;-64
2021/05/01 01:21:51;;;;;;;35.83;33.83;;;21.30;99.90;;;;;;5075175;28;20085;-65
2021/05/01 01:24:19;;;;;;;35.67;33.78;;;21.30;99.90;;;;;;5075300;28;20481;-65
2021/05/01 01:26:47;;;;;;;35.83;33.85;;;21.50;99.90;;;;;;5075202;28;20507;-65
2021/05/01 01:29:14;;;;;;;35.75;33.72;;;21.50;99.90;;;;;;5075175;28;20048;-65
2021/05/01 01:31:45;;;;;;;33.13;31.27;;;21.40;99.90;;;;;;5075068;28;20031;-64
2021/05/01 01:34:12;;;;;;;34.35;32.45;;;21.30;99.90;;;;;;5075151;28;20030;-65
2021/05/01 01:36:40;;;;;;;34.35;32.67;;;21.20;99.90;;;;;;5074912;28;20039;-65
2021/05/01 01:39:07;;;;;;;30.27;28.77;;;21.50;99.90;;;;;;5074976;28;20023;-65
2021/05/01 01:41:35;;;;;;;30.88;29.42;;;21.60;99.90;;;;;;5074669;28;20028;-64
2021/05/01 01:44:02;;;;;;;30.70;29.13;;;21.40;99.90;;;;;;5074987;28;20024;-64
2021/05/01 01:46:30;;;;;;;28.83;27.35;;;21.40;99.90;;;;;;5073597;28;20024;-64
2021/05/01 01:49:00;;;;;;;26.48;25.08;;;21.40;99.90;;;;;;5074794;28;20074;-64
2021/05/01 01:51:28;;;;;;;26.73;25.45;;;21.30;99.90;;;;;;5074631;28;20057;-64
2021/05/01 01:53:55;;;;;;;28.10;26.50;;;21.30;99.90;;;;;;5074623;28;20392;-66
2021/05/01 01:56:25;;;;;;;29.20;27.85;;;21.20;99.90;;;;;;5074618;28;20024;-65
2021/05/01 01:58:52;;;;;;;31.60;29.75;;;21.20;99.90;;;;;;5073280;28;20033;-63
2021/05/01 02:01:21;;;;;;;33.47;31.58;;;21.20;99.90;;;;;;5074351;28;20036;-65
2021/05/01 02:03:48;;;;;;;33.45;31.77;;;21.30;99.90;;;;;;5073075;28;20028;-65
2021/05/01 02:06:16;;;;;;;29.52;28.02;;;21.20;99.90;;;;;;5074390;28;20517;-65
2021/05/01 02:08:44;;;;;;;33.22;31.05;;;21.00;99.90;;;;;;5074556;28;20043;-64
2021/05/01 02:11:11;;;;;;;34.50;32.53;;;21.10;99.90;;;;;;5074266;28;20020;-65
2021/05/01 02:13:38;;;;;;;33.72;32.03;;;21.30;99.90;;;;;;5074340;28;20024;-65
2021/05/01 02:16:06;;;;;;;32.55;30.75;;;21.20;99.90;;;;;;5074186;28;20112;-64
2021/05/01 02:18:34;;;;;;;34.75;32.85;;;21.00;99.90;;;;;;5074157;28;20032;-64
2021/05/01 02:21:01;;;;;;;35.45;33.58;;;20.80;99.90;;;;;;5074002;28;20020;-65
2021/05/01 02:23:29;;;;;;;33.38;31.48;;;20.80;99.90;;;;;;5074031;28;20091;-65
2021/05/01 02:25:56;;;;;;;30.83;29.13;;;20.90;99.90;;;;;;5073973;28;20437;-65
2021/05/01 02:28:23;;;;;;;31.42;29.55;;;21.60;99.90;;;;;;5074065;28;20048;-63
2021/05/01 02:30:51;;;;;;;26.52;25.10;;;22.10;99.90;;;;;;5073972;28;20017;-63
2021/05/01 02:33:18;;;;;;;26.85;25.20;;;22.10;99.90;;;;;;5073875;28;20028;-64
2021/05/01 02:35:45;;;;;;;25.40;24.00;;;22.40;99.90;;;;;;5073907;28;20024;-64
2021/05/01 02:38:13;;;;;;;23.05;21.75;;;22.50;99.90;;;;;;5073875;28;20028;-64
2021/05/01 02:40:40;;;;;;;23.02;21.83;;;22.60;99.90;;;;;;5073647;28;20040;-65
2021/05/01 02:43:16;;;;;;;22.50;21.30;;;22.60;99.90;;;;;;5073517;28;20041;-64
2021/05/01 02:45:43;;;;;;;20.85;19.83;;;22.90;99.90;;;;;;5072612;28;20496;-65
2021/05/01 02:48:11;;;;;;;19.45;18.35;;;22.90;99.90;;;;;;5073548;28;20537;-63
2021/05/01 02:50:40;;;;;;;20.40;19.35;;;23.10;99.90;;;;;;5073551;28;20036;-64
2021/05/01 02:53:07;;;;;;;19.25;18.25;;;23.40;99.90;;;;;;5073577;28;20021;-64
2021/05/01 02:55:38;;;;;;;17.42;16.52;;;23.40;99.90;;;;;;5073701;28;20059;-64
2021/05/01 02:58:05;;;;;;;;;;;23.60;99.90;;;;;;5073519;28;20028;-64
2021/05/01 03:00:32;;;;;;;17.02;16.23;;;23.90;99.90;;;;;;5073302;28;19993;-64
2021/05/01 03:02:59;;;;;;;15.90;15.10;;;23.50;99.90;;;;;;5073241;28;20025;-64
2021/05/01 03:05:27;;;;;;;16.70;15.80;;;23.30;99.90;;;;;;5073364;28;20017;-64
2021/05/01 03:07:54;;;;;;;16.30;15.35;;;23.50;99.90;;;;;;5073374;28;20385;-64
2021/05/01 03:10:25;;;;;;;15.75;14.85;;;23.40;99.90;;;;;;5073335;28;20020;-64
2021/05/01 03:12:53;;;;;;;16.15;15.38;;;23.40;99.90;;;;;;5073585;28;20048;-64
2021/05/01 03:15:21;;;;;;;16.58;15.68;;;23.20;99.90;;;;;;5073176;28;20051;-64
2021/05/01 03:17:50;;;;;;;16.35;15.60;;;22.90;99.90;;;;;;5073130;28;20110;-64
2021/05/01 03:20:18;;;;;;;18.50;17.40;;;22.50;99.90;;;;;;5071827;28;20024;-65
2021/05/01 03:22:47;;;;;;;19.42;18.30;;;22.50;99.90;;;;;;5073160;28;20096;-64
2021/05/01 03:25:18;;;;;;;16.98;15.95;;;22.90;99.90;;;;;;5073285;28;20031;-66
2021/05/01 03:27:46;;;;;;;18.15;16.98;;;23.00;99.90;;;;;;5071964;28;20559;-66
2021/05/01 03:30:18;;;;;;;17.25;16.20;;;23.00;99.90;;;;;;5073081;28;20388;-64
2021/05/01 03:32:46;;;;;;;16.27;15.35;;;23.30;99.90;;;;;;5073263;28;20485;-66
2021/05/01 03:35:15;;;;;;;16.38;15.68;;;23.30;99.90;;;;;;5073036;28;20025;-66
2021/05/01 03:37:43;;;;;;;17.48;16.50;;;23.10;99.90;;;;;;5073171;28;20096;-65
2021/05/01 03:40:11;;;;;;;15.50;14.70;;;23.10;99.90;;;;;;5072856;28;20082;-65
2021/05/01 03:42:39;;;;;;;17.65;16.67;;;23.00;99.90;;;;;;5071602;28;20130;-65
2021/05/01 03:45:08;;;;;;;18.35;17.33;;;22.90;99.90;;;;;;5072995;28;20023;-64
2021/05/01 03:47:36;;;;;;;17.05;15.93;;;22.70;99.90;;;;;;5072811;28;20031;-64
2021/05/01 03:50:04;;;;;;;17.10;16.13;;;23.10;99.90;;;;;;5072909;28;20024;-64
2021/05/01 03:52:31;;;;;;;16.90;15.90;;;23.40;99.90;;;;;;5072833;28;20020;-64
2021/05/01 03:54:58;;;;;;;15.02;14.15;;;23.70;99.90;;;;;;5072845;28;20021;-64
2021/05/01 03:57:26;;;;;;;16.70;15.80;;;23.20;99.90;;;;;;5072852;28;20027;-64
2021/05/01 03:59:53;;;;;;;17.83;16.75;;;23.00;99.90;;;;;;5072748;28;20103;-64
2021/05/01 04:02:21;;;;;;;16.52;15.50;;;23.30;99.90;;;;;;5072740;28;20060;-64
2021/05/01 04:04:49;;;;;;;17.35;16.17;;;23.10;99.90;;;;;;5072640;28;20021;-64
2021/05/01 04:07:16;;;;;;;16.92;16.00;;;23.20;99.90;;;;;;5072754;28;20494;-63
2021/05/01 04:09:44;;;;;;;15.93;15.13;;;23.30;99.90;;;;;;5073278;28;20020;-64
2021/05/01 04:12:11;;;;;;;16.90;15.90;;;23.40;99.90;;;;;;5076774;28;20070;-63
2021/05/01 04:14:38;;;;;;;15.52;14.63;;;23.30;99.90;;;;;;5076505;28;20533;-63
2021/05/01 04:17:05;;;;;;;16.15;15.35;;;23.10;99.90;;;;;;5076566;28;20028;-64
2021/05/01 04:19:33;;;;;;;17.33;16.30;;;22.80;99.90;;;;;;5076445;28;20392;-64
2021/05/01 04:22:05;;;;;;;17.42;16.35;;;22.50;99.90;;;;;;5076211;28;20025;-62
2021/05/01 04:24:35;;;;;;;17.20;16.40;;;22.50;99.90;;;;;;5076258;28;20024;-63
2021/05/01 04:27:02;;;;;;;16.63;15.63;;;22.80;99.90;;;;;;5076201;28;20020;-61
2021/05/01 04:29:30;;;;;;;18.02;16.80;;;22.90;99.90;;;;;;5076388;28;20032;-64
2021/05/01 04:31:57;;;;;;;17.55;16.13;;;23.00;99.90;;;;;;5076145;28;20031;-64
2021/05/01 04:34:24;;;;;;;15.57;14.68;;;23.30;99.90;;;;;;5076416;28;20025;-64
2021/05/01 04:36:52;;;;;;;16.90;15.82;;;23.20;99.90;;;;;;5076104;28;20411;-62
2021/05/01 04:39:19;;;;;;;17.63;16.73;;;23.20;99.90;;;;;;5076004;28;20107;-62
2021/05/01 04:41:47;;;;;;;16.90;15.95;;;23.10;99.90;;;;;;5075828;28;20098;-67
2021/05/01 04:44:15;;;;;;;18.23;17.27;;;23.10;99.90;;;;;;5075987;28;20031;-64
2021/05/01 04:46:42;;;;;;;18.05;17.02;;;22.90;99.90;;;;;;5075838;28;20500;-64
2021/05/01 04:49:10;;;;;;;17.45;16.45;;;22.60;99.90;;;;;;5075859;28;20047;-64
2021/05/01 04:51:37;;;;;;;19.13;18.13;;;22.20;99.90;;;;;;5075931;28;20381;-64
2021/05/01 04:54:07;;;;;;;20.98;19.70;;;22.00;99.90;;;;;;5075739;28;20070;-64
2021/05/01 04:56:35;;;;;;;21.80;20.45;;;21.90;99.90;;;;;;5075740;28;20071;-63
2021/05/01 04:59:03;;;;;;;22.45;21.15;;;21.90;99.90;;;;;;5075944;28;20029;-64
2021/05/01 05:01:31;;;;;;;24.50;23.10;;;22.00;99.90;;;;;;5075476;28;20052;-64
2021/05/01 05:03:58;;;;;;;23.85;22.45;;;22.00;99.90;;;;;;5075517;28;20538;-63
2021/05/01 05:06:26;;;;;;;24.83;23.52;;;21.90;99.90;;;;;;5074296;28;20020;-63
2021/05/01 05:08:53;;;;;;;27.20;25.50;;;21.90;99.90;;;;;;5075689;28;20022;-64
2021/05/01 05:11:21;;;;;;;27.05;25.55;;;21.90;99.90;;;;;;5075464;28;20070;-64
2021/05/01 05:13:48;;;;;;;26.02;24.83;;;21.80;99.90;;;;;;5075492;28;20110;-64
2021/05/01 05:16:16;;;;;;;29.58;28.00;;;21.80;99.90;;;;;;5075475;28;20016;-63
2021/05/01 05:18:43;;;;;;;31.33;29.50;;;21.80;99.90;;;;;;5075457;28;20020;-64
2021/05/01 05:21:11;;;;;;;32.60;30.70;;;21.80;99.90;;;;;;5074979;28;20025;-64
2021/05/01 05:23:38;;;;;;;31.52;29.83;;;21.80;99.90;;;;;;5075264;28;20423;-64
2021/05/01 05:26:06;;;;;;;32.38;30.52;;;21.80;99.90;;;;;;5075259;28;20021;-65
2021/05/01 05:28:33;;;;;;;33.58;31.67;;;21.70;99.90;;;;;;5075401;28;20025;-65
2021/05/01 05:31:07;;;;;;;30.83;28.90;;;21.80;99.90;;;;;;5075054;28;20420;-66
2021/05/01 05:40:07;;;;;;;32.60;30.70;;;21.90;99.90;;;;;;5075333;28;20020;-63
2021/05/01 05:42:44;;;;;;;34.25;32.35;;;22.00;99.90;;;;;;5074816;28;20068;-64
2021/05/01 05:45:35;;;;;;;34.15;32.25;;;21.80;99.90;;;;;;5075056;28;20079;-64
2021/05/01 05:54:58;;;;;;;34.40;32.20;;;21.70;99.90;;;;;;5039582;28;20437;-64
2021/05/01 05:57:26;;;;;;;35.72;33.50;;;21.50;99.90;;;;;;5074602;28;20392;-64
2021/05/01 05:59:53;;;;;;;35.78;33.78;;;21.30;99.90;;;;;;5074618;28;20036;-63
2021/05/01 06:02:23;;;;;;;36.38;34.03;;;21.30;99.90;;;;;;5074342;28;20029;-64
2021/05/01 06:05:11;;;;;;;33.47;31.27;;;21.40;99.90;;;;;;5074842;28;20428;-65
2021/05/01 06:07:46;;;;;;;35.42;33.05;;;21.40;99.90;;;;;;5074472;28;20025;-64
2021/05/01 06:10:14;;;;;;;35.45;33.35;;;21.30;99.90;;;;;;5074406;28;20025;-64
2021/05/01 06:12:44;;;;;;;32.13;30.23;;;21.20;99.90;;;;;;5073131;28;20052;-64
2021/05/01 06:15:16;;;;;;;35.78;33.78;;;21.00;99.90;;;;;;5074278;28;20025;-64
2021/05/01 06:17:45;;;;;;;36.72;34.45;;;20.90;99.90;;;;;;5074387;28;20070;-62
2021/05/01 06:20:14;;;;;;;34.58;32.60;;;20.80;99.90;;;;;;5074154;28;20100;-66
2021/05/01 06:22:42;;;;;;;37.05;34.75;;;20.70;99.90;;;;;;5073913;28;20016;-65
2021/05/01 06:25:12;;;;;;;37.42;34.95;;;20.50;99.90;;;;;;5074098;28;20017;-65
2021/05/01 06:27:42;;;;;;;38.60;36.30;;;20.40;99.90;;;;;;5073962;28;20527;-65
2021/05/01 06:30:10;;;;;;;;;;;20.30;99.90;;;;;;5074360;28;20477;-64
2021/05/01 06:32:38;;;;;;;37.92;35.60;;;20.30;99.90;;;;;;5073260;28;19904;-64
2021/05/01 06:35:07;;;;;;;39.13;36.75;;;20.20;99.90;;;;;;5073794;28;20049;-64
2021/05/01 06:37:39;;;;;;;38.97;36.47;;;20.20;99.90;;;;;;5073820;28;20028;-63
2021/05/01 06:40:21;;;;;;;37.20;34.80;;;20.10;99.90;;;;;;5074063;28;20052;-64
2021/05/01 06:43:01;;;;;;;37.85;35.35;;;20.10;99.90;;;;;;5073645;28;20443;-64
2021/05/01 06:45:29;;;;;;;36.40;33.87;;;20.00;99.90;;;;;;5073789;28;20050;-64
2021/05/01 06:48:02;;;;;;;35.83;33.15;;;20.00;99.90;;;;;;5073649;28;20614;-64
2021/05/01 06:50:31;;;;;;;36.53;33.72;;;19.90;99.90;;;;;;5073758;28;20048;-64
2021/05/01 06:52:59;;;;;;;37.33;34.50;;;19.80;99.90;;;;;;5073739;28;20016;-64
2021/05/01 06:55:30;;;;;;;37.17;34.58;;;19.80;99.90;;;;;;5073903;28;20047;-65
2021/05/01 06:57:59;;;;;;;38.45;35.47;;;19.70;99.90;;;;;;5074213;28;20024;-66
2021/05/01 07:00:28;;;;;;;38.58;35.97;;;19.70;99.90;;;;;;5073535;28;20031;-67
2021/05/01 07:03:06;;;;;;;39.35;36.65;;;19.70;99.90;;;;;;5073322;28;20100;-67
2021/05/01 07:05:35;;;;;;;40.53;37.63;;;19.60;99.90;;;;;;5073475;28;20133;-67
2021/05/01 07:08:02;;;;;;;39.58;36.78;;;19.60;99.90;;;;;;5073422;28;20013;-67
2021/05/01 07:10:30;;;;;;;37.65;34.95;;;19.50;99.90;;;;;;5073622;28;20074;-68
2021/05/01 07:13:00;;;;;;;37.47;34.97;;;19.40;99.90;;;;;;5071983;28;20074;-66
2021/05/01 07:15:27;;;;;;;36.63;34.22;;;19.40;99.90;;;;;;5073220;28;20063;-67
2021/05/01 07:17:55;;;;;;;37.28;34.88;;;19.30;99.90;;;;;;5073451;28;20051;-67
2021/05/01 07:20:23;;;;;;;38.50;35.90;;;19.30;99.90;;;;;;5073354;28;20016;-67
2021/05/01 07:22:52;;;;;;;37.05;34.42;;;19.30;99.90;;;;;;5073398;28;20560;-69
2021/05/01 07:25:22;;;;;;;37.30;34.50;;;19.30;99.90;;;;;;5073136;28;20052;-68
2021/05/01 07:28:12;;;;;;;37.28;34.70;;;19.30;99.90;;;;;;5073158;28;20201;-68
2021/05/01 07:30:46;;;;;;;35.72;33.42;;;19.30;99.90;;;;;;5073124;28;20489;-69
2021/05/01 07:33:20;;;;;;;35.45;33.05;;;19.30;99.90;;;;;;5073259;28;20032;-66
2021/05/01 07:35:51;;;;;;;35.58;33.28;;;19.30;99.90;;;;;;5073129;28;20028;-68
2021/05/01 07:38:18;;;;;;;35.60;33.05;;;19.30;99.90;;;;;;5072942;28;20032;-67
2021/05/01 07:40:46;;;;;;;36.63;34.00;;;19.20;99.90;;;;;;5072833;28;20032;-66
2021/05/01 07:43:17;;;;;;;36.70;34.13;;;19.20;99.90;;;;;;5072613;28;20123;-68
2021/05/01 07:45:48;;;;;;;36.28;33.70;;;19.20;99.90;;;;;;5076685;28;20024;-64
2021/05/01 07:48:16;;;;;;;36.53;33.65;;;19.20;99.90;;;;;;5077056;28;20025;-61
2021/05/01 07:50:44;;;;;;;35.55;33.17;;;19.10;99.90;;;;;;5077213;28;20025;-63
2021/05/01 07:53:12;;;;;;;35.97;33.35;;;19.10;99.90;;;;;;5076902;28;20036;-64
2021/05/01 07:55:40;;;;;;;36.28;33.78;;;19.10;99.90;;;;;;5076812;28;20025;-64
2021/05/01 07:58:09;;;;;;;35.97;33.58;;;19.10;99.90;;;;;;5076822;28;20393;-62
2021/05/01 08:00:36;;;;;;;35.08;32.78;;;19.00;99.90;;;;;;5076739;28;20024;-64
2021/05/01 08:03:05;;;;;;;35.85;33.25;;;19.00;99.90;;;;;;5076605;28;20480;-62
2021/05/01 08:05:33;;;;;;;35.72;33.15;;;19.00;99.90;;;;;;5076737;28;20377;-64
2021/05/01 08:08:00;;;;;;;36.03;33.53;;;19.00;99.90;;;;;;5076625;28;20448;-62
2021/05/01 08:10:27;;;;;;;37.47;35.03;;;19.00;99.90;;;;;;5076615;28;20040;-62
2021/05/01 08:12:55;;;;;;;37.22;34.92;;;19.00;99.90;;;;;;5076600;28;20423;-62
2021/05/01 08:15:22;;;;;;;38.10;35.70;;;18.90;99.90;;;;;;5076592;28;20020;-63
2021/05/01 08:17:49;;;;;;;36.80;34.35;;;18.90;99.90;;;;;;5076477;28;20056;-62
2021/05/01 08:20:17;;;;;;;37.00;34.40;;;18.90;99.90;;;;;;5076325;28;20531;-62
2021/05/01 08:22:44;;;;;;;37.72;35.13;;;18.80;99.90;;;;;;5076274;28;20074;-63
2021/05/01 08:25:13;;;;;;;36.63;34.13;;;18.70;99.90;;;;;;5076322;28;20017;-62
2021/05/01 08:27:41;;;;;;;37.72;35.05;;;18.70;99.90;;;;;;5076244;28;20027;-62
2021/05/01 08:30:14;;;;;;;37.50;35.08;;;18.70;99.90;;;;;;5076149;28;20477;-61
2021/05/01 08:32:42;;;;;;;38.90;35.95;;;18.70;99.90;;;;;;5076152;28;20031;-62
2021/05/01 08:35:11;;;;;;;37.90;35.22;;;18.70;99.90;;;;;;5076063;28;20025;-61
2021/05/01 08:37:39;;;;;;;38.00;35.28;;;18.70;99.90;;;;;;5076059;28;20020;-61
2021/05/01 08:40:07;;;;;;;39.58;36.90;;;18.60;99.90;;;;;;5076023;28;20021;-61
2021/05/01 08:42:34;;;;;;;39.42;36.50;;;18.60;99.90;;;;;;5075616;28;20540;-59
2021/05/01 08:45:05;;;;;;;37.60;35.13;;;18.60;99.90;;;;;;5075717;28;20044;-59
2021/05/01 08:47:34;;;;;;;;;;;18.50;99.90;;;;;;5076262;28;20098;-59
2021/05/01 08:50:22;;;;;;;40.55;37.85;;;18.60;99.90;;;;;;5075896;28;19905;-59
2021/05/01 08:52:50;;;;;;;41.05;38.28;;;18.50;99.90;;;;;;5075882;28;20024;-59
2021/05/01 08:55:17;;;;;;;42.65;39.45;;;18.50;99.90;;;;;;5073878;28;20017;-59
2021/05/01 08:57:45;;;;;;;42.50;39.38;;;18.50;99.90;;;;;;5075483;28;20480;-60
2021/05/01 09:00:12;;;;;;;43.75;40.42;;;18.60;99.90;;;;;;5075741;28;20027;-62
2021/05/01 09:02:41;;;;;;;44.70;41.00;;;18.60;99.90;;;;;;5075576;28;20031;-59
2021/05/01 09:05:10;;;;;;;43.78;40.35;;;18.50;99.90;;;;;;5075396;28;20013;-62
2021/05/01 09:07:40;;;;;;;45.20;41.47;;;18.50;99.90;;;;;;5075623;28;20016;-62
2021/05/01 09:10:08;;;;;;;44.15;40.63;;;18.50;99.90;;;;;;5075700;28;20040;-62
2021/05/01 09:12:45;;;;;;;43.40;40.00;;;18.50;99.90;;;;;;5075444;28;20056;-62
2021/05/01 09:15:31;;;;;;;44.75;41.20;;;18.40;99.90;;;;;;5075500;28;20030;-62
2021/05/01 09:18:04;;;;;;;44.17;40.30;;;18.40;99.90;;;;;;5075512;28;20028;-62
2021/05/01 09:20:32;;;;;;;45.45;41.50;;;18.40;99.90;;;;;;5075268;28;20496;-62
2021/05/01 09:23:03;;;;;;;43.38;39.67;;;18.40;99.90;;;;;;5075307;28;20025;-62
2021/05/01 09:25:33;;;;;;;45.85;41.75;;;18.30;99.90;;;;;;5075233;28;20028;-62
2021/05/01 09:28:14;;;;;;;44.90;41.35;;;18.30;99.90;;;;;;5075267;28;20499;-61
2021/05/01 09:30:57;;;;;;;43.95;40.17;;;18.20;99.90;;;;;;5075207;28;20024;-62
2021/05/01 09:33:49;;;;;;;44.55;40.88;;;18.20;99.90;;;;;;5075183;28;20086;-63
2021/05/01 09:36:23;;;;;;;45.58;41.95;;;18.10;99.90;;;;;;5067251;28;20032;-63
2021/05/01 09:38:51;;;;;;;45.45;41.70;;;18.10;99.90;;;;;;5075046;28;20032;-63
2021/05/01 09:41:19;;;;;;;44.10;40.70;;;18.00;99.90;;;;;;5073795;28;20031;-65
2021/05/01 09:44:03;;;;;;;44.45;40.80;;;18.00;99.90;;;;;;5074706;28;20393;-64
2021/05/01 09:46:38;;;;;;;46.65;42.85;;;17.90;99.90;;;;;;5074768;28;20028;-65
2021/05/01 09:49:17;;;;;;;44.40;40.30;;;17.90;99.90;;;;;;5074979;28;20547;-62
2021/05/01 09:51:59;;;;;;;44.67;41.17;;;17.90;99.90;;;;;;5074905;28;20397;-64
2021/05/01 09:54:35;;;;;;;45.58;41.80;;;17.90;99.90;;;;;;5074678;28;20051;-64
2021/05/01 09:57:07;;;;;;;46.80;42.88;;;17.90;99.90;;;;;;5074648;28;20028;-62
2021/05/01 09:59:46;;;;;;;47.03;42.65;;;17.80;99.90;;;;;;5074709;28;20023;-63
2021/05/01 10:02:15;;;;;;;48.15;43.92;;;17.80;99.90;;;;;;5074444;28;20493;-64
2021/05/01 10:05:03;;;;;;;44.72;41.15;;;17.80;99.90;;;;;;5074353;28;20051;-64
2021/05/01 10:07:32;;;;;;;45.22;41.45;;;17.80;99.90;;;;;;5073180;28;20051;-65
2021/05/01 10:10:00;;;;;;;45.08;41.67;;;17.80;99.90;;;;;;5074411;28;20393;-64
2021/05/01 10:12:40;;;;;;;45.47;41.95;;;17.70;99.90;;;;;;5074340;28;20020;-64
2021/05/01 10:15:20;;;;;;;45.97;42.47;;;17.70;99.90;;;;;;5074210;28;20027;-64
2021/05/01 10:17:49;;;;;;;45.50;41.57;;;17.60;99.90;;;;;;5074349;28;20254;-63
2021/05/01 10:20:17;;;;;;;46.33;42.72;;;17.70;99.90;;;;;;5074216;28;20420;-61
2021/05/01 10:22:46;;;;;;;48.72;44.58;;;17.60;99.90;;;;;;5074103;28;20035;-61
2021/05/01 10:25:25;;;;;;;47.33;43.72;;;17.60;99.90;;;;;;5074047;28;20012;-64
2021/05/01 10:28:04;;;;;;;49.80;45.92;;;17.60;99.90;;;;;;5074028;28;20021;-62
2021/05/01 10:31:18;;;;;;;50.63;46.35;;;17.50;99.90;;;;;;5074036;28;20499;-61
2021/05/01 10:33:34;;;;;;;50.67;46.85;;;17.50;99.90;;;;;;5068145;28;20056;-62
2021/05/01 10:36:17;;;;;;;49.67;45.90;;;17.50;99.90;;;;;;5073889;28;20078;-62
2021/05/01 10:38:44;;;;;;;49.80;46.17;;;17.50;99.90;;;;;;5073804;28;20090;-62
2021/05/01 10:41:20;;;;;;;48.33;44.60;;;17.50;99.90;;;;;;5073638;28;20024;-59
2021/05/01 10:43:56;;;;;;;49.20;45.25;;;17.50;99.90;;;;;;5073659;28;20047;-60
2021/05/01 10:46:32;;;;;;;51.92;47.75;;;17.50;99.90;;;;;;5073707;28;20441;-62
2021/05/01 10:49:08;;;;;;;48.35;44.47;;;17.50;99.90;;;;;;5073693;28;20028;-60
2021/05/01 10:51:52;;;;;;;49.35;45.75;;;17.50;99.90;;;;;;5073626;28;20025;-60
2021/05/01 10:54:21;;;;;;;49.42;45.60;;;17.40;99.90;;;;;;5073609;28;20149;-60
2021/05/01 10:56:50;;;;;;;48.55;44.95;;;17.40;99.90;;;;;;5073475;28;20099;-63
2021/05/01 10:59:30;;;;;;;45.90;42.42;;;17.50;99.90;;;;;;5073442;28;20033;-63
2021/05/01 11:02:00;;;;;;;47.00;42.78;;;17.50;99.90;;;;;;5073415;28;20021;-63
2021/05/01 11:04:31;;;;;;;45.92;42.42;;;17.50;99.90;;;;;;5073316;28;20035;-62
2021/05/01 11:07:16;;;;;;;;;;;17.50;99.90;;;;;;5073819;28;20071;-63
2021/05/01 11:09:47;;;;;;;47.72;44.20;;;17.40;99.90;;;;;;5073400;28;20357;-63
2021/05/01 11:12:23;;;;;;;48.03;44.40;;;17.40;99.90;;;;;;5073361;28;20020;-63
2021/05/01 11:15:06;;;;;;;47.08;43.05;;;17.40;99.90;;;;;;5073283;28;20358;-63
2021/05/01 11:17:33;;;;;;;46.67;43.08;;;17.30;99.90;;;;;;5071958;28;20078;-61
2021/05/01 11:20:07;;;;;;;47.63;43.78;;;17.30;99.90;;;;;;5072875;28;20029;-63
2021/05/01 11:22:40;;;;;;;46.63;42.78;;;17.40;99.90;;;;;;5073163;28;20095;-64
2021/05/01 11:25:16;;;;;;;48.53;44.80;;;17.30;99.90;;;;;;5073216;28;20020;-63
2021/05/01 11:27:46;;;;;;;47.35;43.75;;;17.40;99.90;;;;;;5073240;28;20025;-61
2021/05/01 11:30:19;;;;;;;49.22;45.15;;;17.30;99.90;;;;;;5073115;28;20392;-62
2021/05/01 11:32:47;;;;;;;47.33;43.58;;;17.40;99.90;;;;;;5073331;28;20094;-62
2021/05/01 11:35:23;;;;;;;46.95;43.22;;;17.30;99.90;;;;;;5073112;28;20016;-62
2021/05/01 11:37:59;;;;;;;47.78;43.28;;;17.30;99.90;;;;;;5073002;28;20021;-62
2021/05/01 11:40:32;;;;;;;48.85;45.05;;;17.30;99.90;;;;;;5072899;28;20027;-62
2021/05/01 11:43:00;;;;;;;48.72;44.92;;;17.30;99.90;;;;;;5072869;28;20037;-62
2021/05/01 11:45:52;;;;;;;48.90;45.05;;;17.20;99.90;;;;;;5073012;28;20554;-61
2021/05/01 11:48:36;;;;;;;49.15;45.40;;;17.30;99.90;;;;;;5073039;28;20094;-62
2021/05/01 11:51:11;;;;;;;49.03;45.42;;;17.30;99.90;;;;;;5072857;28;20032;-62
2021/05/01 11:53:48;;;;;;;50.45;46.55;;;17.30;99.90;;;;;;5072993;28;20077;-63
2021/05/01 11:56:25;;;;;;;52.50;48.50;;;17.20;99.90;;;;;;5072570;28;20021;-62
2021/05/01 11:59:05;;;;;;;53.17;49.17;;;17.20;99.90;;;;;;5072735;28;20024;-63
2021/05/01 12:01:33;;;;;;;55.67;51.55;;;17.20;99.90;;;;;;5072863;28;20532;-63
2021/05/01 12:04:03;;;;;;;55.33;51.17;;;17.20;99.90;;;;;;5072686;28;20116;-63
2021/05/01 12:06:38;;;;;;;55.53;51.47;;;17.20;99.90;;;;;;5072869;28;20056;-63
2021/05/01 12:09:12;;;;;;;56.38;52.38;;;17.10;99.90;;;;;;5071459;28;20017;-63
2021/05/01 12:11:44;;;;;;;51.70;48.00;;;17.10;99.90;;;;;;5072921;28;20453;-64
2021/05/01 12:14:13;;;;;;;52.03;48.28;;;17.10;99.90;;;;;;5072747;28;20056;-63
2021/05/01 12:16:42;;;;;;;52.72;48.75;;;17.10;99.90;;;;;;5072636;28;20477;-63
2021/05/01 12:19:26;;;;;;;51.53;47.75;;;17.10;99.90;;;;;;5072646;28;20020;-63
2021/05/01 12:21:55;;;;;;;51.55;47.53;;;17.00;99.90;;;;;;5072596;28;20025;-63
2021/05/01 12:24:32;;;;;;;51.30;47.17;;;17.00;99.90;;;;;;5072659;28;20145;-63
2021/05/01 12:27:01;;;;;;;51.85;47.70;;;17.00;99.90;;;;;;5072625;28;20485;-63
2021/05/01 12:29:31;;;;;;;52.55;48.50;;;17.00;99.90;;;;;;5072591;28;20023;-63
2021/05/01 12:32:07;;;;;;;51.30;47.40;;;17.00;99.90;;;;;;5074976;28;20516;-63
2021/05/01 12:34:50;;;;;;;53.97;49.85;;;17.00;99.90;;;;;;5074975;28;20549;-63
2021/05/01 12:37:21;;;;;;;52.88;48.95;;;17.10;99.90;;;;;;5076285;28;20095;-63
2021/05/01 12:39:50;;;;;;;52.70;48.70;;;17.00;99.90;;;;;;5076533;28;20021;-62
2021/05/01 12:42:26;;;;;;;53.40;49.38;;;16.90;99.90;;;;;;5075817;28;20040;-63
2021/05/01 12:44:54;;;;;;;54.65;50.35;;;16.90;99.90;;;;;;5076070;28;20116;-63
2021/05/01 12:47:39;;;;;;;51.95;48.13;;;16.80;99.90;;;;;;5075977;28;20528;-63
2021/05/01 12:50:13;;;;;;;51.95;47.92;;;16.80;99.90;;;;;;5075765;28;20389;-63
2021/05/01 12:52:43;;;;;;;52.38;48.40;;;16.80;99.90;;;;;;5075686;28;20033;-63
2021/05/01 12:55:11;;;;;;;51.38;47.55;;;16.70;99.90;;;;;;5075625;28;20017;-63
2021/05/01 12:57:40;;;;;;;52.50;48.60;;;16.70;99.90;;;;;;5075666;28;20067;-64